EDLI 020058Z 28006KT 9999 ///021 ///028 04/03 Q1018

Wind aktuell: 280° mit 6 kt

Wind 10 Minuten extrem:

260° bis 300° mit 4 kt bis 10 kt

Seitenwindkomponente: 1.0 kt

Wolkengrenze 1: 1700

Wolkengrenze 2: keine

Wolkengrenze 3: keine

Sichtweite: 20.000 Meter

Vorheriges Wetter:

Aktuelles Wetter:

Temperatur: 4.1 °C

Taupunkt: 3.5 °C

Luftfeuchtigkeit: 95%

QNH: 1018 hPa 

QFE: 1001 hPa